Time;durP1;ratioP1;P1;durP2;ratioP2;P2;SDS_P1;SDS_P2;PMS_P1;PMS_P2;Temp;Humidity;BMP_temperature;BMP_pressure;BME280_temperature;BME280_humidity;BME280_pressure;Samples;Min_cycle;Max_cycle;Signal;HPM_P1;HPM_P2
2024/02/21 00:01:54;;;;;;;15.23;7.18;;;11.50;99.90;;;;;;5083254;28;20219;-78
2024/02/21 00:04:23;;;;;;;13.07;7.40;;;11.50;99.90;;;;;;5095330;28;20680;-78
2024/02/21 00:06:50;;;;;;;16.83;7.97;;;11.50;99.90;;;;;;5095347;28;20245;-78
2024/02/21 00:09:20;;;;;;;16.60;10.10;;;11.50;99.90;;;;;;5095125;28;20227;-76
2024/02/21 00:11:47;;;;;;;9.48;6.78;;;11.50;99.90;;;;;;5084721;28;20638;-76
2024/02/21 00:14:18;;;;;;;24.45;10.27;;;11.50;99.90;;;;;;5095136;28;20228;-76
2024/02/21 00:16:45;;;;;;;16.23;8.15;;;11.50;99.90;;;;;;5094577;28;20223;-77
2024/02/21 00:19:14;;;;;;;11.55;8.00;;;11.40;99.90;;;;;;5095325;28;20992;-76
2024/02/21 00:21:41;;;;;;;12.40;8.23;;;11.50;99.90;;;;;;5094863;28;20242;-78
2024/02/21 00:24:08;;;;;;;18.90;8.82;;;11.40;99.90;;;;;;5095412;28;20231;-78
2024/02/21 00:26:35;;;;;;;28.67;13.63;;;11.40;99.90;;;;;;5094673;28;20302;-77
2024/02/21 00:29:05;;;;;;;43.45;28.88;;;11.40;99.90;;;;;;5095467;28;20233;-76
2024/02/21 00:31:34;;;;;;;15.07;8.50;;;11.40;99.90;;;;;;5094617;28;20251;-77
2024/02/21 00:34:03;;;;;;;19.67;7.85;;;11.30;99.90;;;;;;5091014;28;20684;-77
2024/02/21 00:36:31;;;;;;;9.82;5.45;;;11.30;99.90;;;;;;5074366;28;20224;-78
2024/02/21 00:38:58;;;;;;;12.15;6.63;;;11.20;99.90;;;;;;5074903;28;20216;-78
2024/02/21 00:41:25;;;;;;;12.43;6.75;;;11.20;99.90;;;;;;5091678;28;20237;-78
2024/02/21 00:43:53;;;;;;;19.70;6.97;;;11.20;99.90;;;;;;5094686;28;20633;-76
2024/02/21 00:46:21;;;;;;;13.80;6.40;;;11.20;99.90;;;;;;5094709;28;20235;-78
2024/02/21 00:48:52;;;;;;;14.18;7.90;;;11.20;99.90;;;;;;5094505;28;20219;-77
2024/02/21 00:51:19;;;;;;;13.00;8.85;;;11.10;99.90;;;;;;5094765;28;20219;-77
2024/02/21 00:53:49;;;;;;;12.77;6.80;;;11.10;99.90;;;;;;5084680;28;20230;-77
2024/02/21 00:56:18;;;;;;;15.75;6.63;;;11.10;99.90;;;;;;5074138;28;20234;-76
2024/02/21 00:58:45;;;;;;;20.27;9.35;;;11.00;99.90;;;;;;5073624;28;20255;-77
2024/02/21 01:01:12;;;;;;;14.73;6.70;;;11.00;99.90;;;;;;5076555;28;20238;-77
2024/02/21 01:03:41;;;;;;;14.00;7.65;;;11.00;99.90;;;;;;5094335;28;20235;-77
2024/02/21 01:06:09;;;;;;;9.90;6.32;;;11.00;99.90;;;;;;5094477;28;20219;-76
2024/02/21 01:08:36;;;;;;;8.80;5.22;;;11.00;99.90;;;;;;5093947;28;20223;-77
2024/02/21 01:11:06;;;;;;;16.70;5.93;;;11.00;99.90;;;;;;5094459;28;20275;-77
2024/02/21 01:13:34;;;;;;;16.77;5.78;;;11.00;99.90;;;;;;5093279;28;20234;-77
2024/02/21 01:16:04;;;;;;;12.25;7.15;;;10.90;99.90;;;;;;5094901;28;20223;-77
2024/02/21 01:18:33;;;;;;;15.35;7.15;;;10.90;99.90;;;;;;5093639;28;20234;-77
2024/02/21 01:21:01;;;;;;;16.58;7.50;;;10.90;99.90;;;;;;5093723;28;20219;-78
2024/02/21 01:23:31;;;;;;;17.85;9.00;;;10.90;99.90;;;;;;5094185;28;20807;-77
2024/02/21 01:26:00;;;;;;;19.00;8.93;;;10.90;99.90;;;;;;5093146;28;20223;-77
2024/02/21 01:28:27;;;;;;;11.85;5.93;;;10.90;99.90;;;;;;5092117;28;20687;-77
2024/02/21 01:30:54;;;;;;;13.20;5.57;;;10.90;99.90;;;;;;5094105;28;20653;-77
2024/02/21 01:33:21;;;;;;;10.85;7.38;;;10.90;99.90;;;;;;5093970;28;20310;-77
2024/02/21 01:35:49;;;;;;;15.93;5.53;;;10.90;99.90;;;;;;5093021;28;20245;-77
2024/02/21 01:38:16;;;;;;;14.60;5.28;;;10.90;99.90;;;;;;5094033;28;20223;-76
2024/02/21 01:40:44;;;;;;;16.02;8.05;;;10.90;99.90;;;;;;5093342;28;20229;-76
2024/02/21 01:43:21;;;;;;;10.82;5.32;;;11.00;99.90;;;;;;5093849;28;20540;-77
2024/02/21 01:45:53;;;;;;;12.00;5.75;;;10.90;99.90;;;;;;5093589;28;20234;-76
2024/02/21 01:48:19;;;;;;;13.40;5.72;;;10.90;99.90;;;;;;5093869;28;20547;-76
2024/02/21 01:50:47;;;;;;;10.27;6.88;;;10.90;99.90;;;;;;5092968;28;20230;-76
2024/02/21 01:53:20;;;;;;;11.43;5.03;;;10.90;99.90;;;;;;5088934;28;20239;-77
2024/02/21 01:55:49;;;;;;;17.02;8.15;;;10.90;99.90;;;;;;5072159;28;20309;-77
2024/02/21 01:58:17;;;;;;;22.00;9.38;;;10.90;99.90;;;;;;5073136;28;20228;-77
2024/02/21 02:00:46;;;;;;;15.75;8.50;;;11.00;99.90;;;;;;5072882;28;20569;-76
2024/02/21 02:03:16;;;;;;;17.00;5.97;;;11.10;99.90;;;;;;5092737;28;20246;-77
2024/02/21 02:05:45;;;;;;;18.77;7.28;;;11.10;99.90;;;;;;5092355;28;20227;-76
2024/02/21 02:08:13;;;;;;;23.60;10.93;;;11.20;99.90;;;;;;5093780;28;20254;-77
2024/02/21 02:10:43;;;;;;;11.68;7.85;;;11.30;99.90;;;;;;5092962;28;20250;-77
2024/02/21 02:13:12;;;;;;;10.50;5.60;;;11.40;99.90;;;;;;5091882;28;20227;-76
2024/02/21 02:15:43;;;;;;;10.38;6.07;;;11.40;99.90;;;;;;5092903;28;20219;-77
2024/02/21 02:18:11;;;;;;;13.25;8.30;;;11.50;99.90;;;;;;5083523;28;20540;-77
2024/02/21 02:20:44;;;;;;;49.72;30.60;;;11.60;99.90;;;;;;5092866;28;20258;-78
2024/02/21 02:23:13;;;;;;;15.98;8.57;;;11.60;99.90;;;;;;5092928;28;20251;-78
2024/02/21 02:25:45;;;;;;;25.38;10.57;;;11.70;99.90;;;;;;5093258;28;20219;-78
2024/02/21 02:28:12;;;;;;;11.77;5.90;;;11.70;99.90;;;;;;5093156;28;20215;-77
2024/02/21 02:30:39;;;;;;;15.40;7.63;;;11.70;99.90;;;;;;5093343;28;20306;-77
2024/02/21 02:33:07;;;;;;;11.85;6.22;;;11.80;99.90;;;;;;5082745;28;20284;-77
2024/02/21 02:35:35;;;;;;;11.18;7.10;;;11.80;99.90;;;;;;5075407;28;20220;-78
2024/02/21 02:38:04;;;;;;;9.88;6.00;;;11.80;99.90;;;;;;5072137;28;20223;-76
2024/02/21 02:40:31;;;;;;;15.23;9.25;;;11.80;99.90;;;;;;5082138;28;20223;-76
2024/02/21 02:43:00;;;;;;;17.63;9.27;;;11.90;99.90;;;;;;5092985;28;20696;-77
2024/02/21 02:45:27;;;;;;;23.67;15.60;;;11.90;99.90;;;;;;5093125;28;20728;-76
2024/02/21 02:47:56;;;;;;;15.15;6.88;;;11.90;99.90;;;;;;5092350;28;20238;-77
2024/02/21 02:50:24;;;;;;;33.83;21.00;;;11.90;99.90;;;;;;5093284;28;20297;-78
2024/02/21 02:52:51;;;;;;;17.48;8.57;;;11.90;99.90;;;;;;5092828;28;20247;-76
2024/02/21 02:55:18;;;;;;;19.80;10.20;;;11.90;99.90;;;;;;5092712;28;20544;-76
2024/02/21 02:57:45;;;;;;;14.63;7.72;;;11.90;99.90;;;;;;5092518;28;20211;-76
2024/02/21 03:00:15;;;;;;;15.70;8.00;;;11.90;99.90;;;;;;5092157;28;20284;-77
2024/02/21 03:02:44;;;;;;;10.55;7.32;;;11.90;99.90;;;;;;5091923;28;20223;-77
2024/02/21 03:05:15;;;;;;;19.42;7.72;;;11.90;99.90;;;;;;5092333;28;20224;-78
2024/02/21 03:07:43;;;;;;;13.48;5.55;;;11.80;99.90;;;;;;5092603;28;20281;-77
2024/02/21 03:10:11;;;;;;;16.05;10.13;;;11.80;99.90;;;;;;5092098;28;20258;-77
2024/02/21 03:12:38;;;;;;;23.38;10.63;;;11.80;99.90;;;;;;5091976;28;20220;-78
2024/02/21 03:15:06;;;;;;;15.27;9.48;;;11.70;99.90;;;;;;5091476;28;20665;-77
2024/02/21 03:17:36;;;;;;;15.93;7.40;;;11.70;99.90;;;;;;5093037;28;20219;-78
2024/02/21 03:20:05;;;;;;;13.57;7.00;;;11.70;99.90;;;;;;5092403;28;20229;-78
2024/02/21 03:22:33;;;;;;;19.60;10.38;;;11.60;99.90;;;;;;5092650;28;20234;-76
2024/02/21 03:25:00;;;;;;;11.57;6.15;;;11.60;99.90;;;;;;5091810;28;20726;-77
2024/02/21 03:27:27;;;;;;;14.80;6.22;;;11.50;99.90;;;;;;5092655;28;20233;-76
2024/02/21 03:29:54;;;;;;;18.13;11.70;;;11.50;99.90;;;;;;5091951;28;20210;-77
2024/02/21 03:32:24;;;;;;;24.95;16.27;;;11.50;99.90;;;;;;5092491;28;20224;-77
2024/02/21 03:34:52;;;;;;;18.05;12.02;;;11.50;99.90;;;;;;5092564;28;20281;-77
2024/02/21 03:37:19;;;;;;;31.05;16.20;;;11.40;99.90;;;;;;5094275;28;20219;-77
2024/02/21 03:39:46;;;;;;;21.42;14.77;;;11.40;99.90;;;;;;5096008;28;20333;-77
2024/02/21 03:42:14;;;;;;;28.15;16.55;;;11.40;99.90;;;;;;5095243;28;20219;-76
2024/02/21 03:44:41;;;;;;;16.08;7.18;;;11.40;99.90;;;;;;5095792;28;20669;-76
2024/02/21 03:47:10;;;;;;;8.80;6.90;;;11.30;99.90;;;;;;5095260;28;20251;-76
2024/02/21 03:49:37;;;;;;;16.77;10.73;;;11.30;99.90;;;;;;5096410;28;20224;-76
2024/02/21 03:52:09;;;;;;;10.32;6.25;;;11.20;99.90;;;;;;5095320;28;20665;-76
2024/02/21 03:54:36;;;;;;;18.33;7.32;;;11.20;99.90;;;;;;5079476;28;20281;-77
2024/02/21 03:57:07;;;;;;;13.70;7.50;;;11.10;99.90;;;;;;5072595;28;20216;-77
2024/02/21 03:59:36;;;;;;;16.23;8.13;;;11.00;99.90;;;;;;5075400;28;20311;-77
2024/02/21 04:02:08;;;;;;;17.75;8.15;;;10.90;99.90;;;;;;5084053;28;20314;-76
2024/02/21 04:04:38;;;;;;;17.60;10.48;;;10.90;99.90;;;;;;5096077;28;20607;-77
2024/02/21 04:07:08;;;;;;;10.93;7.10;;;11.00;99.90;;;;;;5095235;28;20254;-78
2024/02/21 04:09:35;;;;;;;10.88;6.80;;;10.90;99.90;;;;;;5095925;28;20220;-78
2024/02/21 04:12:02;;;;;;;13.98;7.82;;;11.00;99.90;;;;;;5095365;28;20220;-78
2024/02/21 04:14:33;;;;;;;12.77;8.45;;;10.90;99.90;;;;;;5095386;28;20405;-77
2024/02/21 04:17:00;;;;;;;11.77;8.38;;;11.00;99.90;;;;;;5095255;28;20668;-77
2024/02/21 04:19:27;;;;;;;16.23;8.07;;;11.00;99.90;;;;;;5094869;28;20609;-76
2024/02/21 04:21:54;;;;;;;16.52;10.77;;;11.00;99.90;;;;;;5095163;28;20223;-77
2024/02/21 04:24:26;;;;;;;10.60;7.85;;;11.10;99.90;;;;;;5084464;28;20314;-77
2024/02/21 04:26:53;;;;;;;17.13;7.53;;;11.10;99.90;;;;;;5095066;28;20230;-77
2024/02/21 04:29:25;;;;;;;13.73;8.43;;;11.00;99.90;;;;;;5094537;28;20220;-76
2024/02/21 04:31:56;;;;;;;15.90;8.15;;;11.10;99.90;;;;;;5095278;28;20238;-77
2024/02/21 04:34:24;;;;;;;16.20;8.98;;;11.00;99.90;;;;;;5094255;28;20224;-76
2024/02/21 04:36:51;;;;;;;11.52;6.80;;;11.00;99.90;;;;;;5095288;28;20227;-77
2024/02/21 04:39:18;;;;;;;16.85;7.47;;;10.90;99.90;;;;;;5094604;28;20227;-77
2024/02/21 04:41:46;;;;;;;15.30;6.93;;;10.90;99.90;;;;;;5095474;28;20219;-77
2024/02/21 04:44:14;;;;;;;14.52;8.10;;;10.80;99.90;;;;;;5094774;28;20599;-77
2024/02/21 04:46:43;;;;;;;12.23;7.13;;;10.80;99.90;;;;;;5093996;28;20230;-76
2024/02/21 04:49:10;;;;;;;9.52;6.70;;;10.80;99.90;;;;;;5093039;28;20253;-77
2024/02/21 04:51:37;;;;;;;13.73;8.20;;;10.80;99.90;;;;;;5083849;28;20258;-77
2024/02/21 04:54:06;;;;;;;12.57;7.97;;;10.90;99.90;;;;;;5082585;28;20228;-77
2024/02/21 04:56:50;;;;;;;23.48;10.07;;;10.80;99.90;;;;;;5073019;28;20224;-77
2024/02/21 04:59:19;;;;;;;16.10;8.55;;;10.80;99.90;;;;;;5064981;28;20228;-77
2024/02/21 05:01:48;;;;;;;10.98;6.78;;;10.80;99.90;;;;;;5074731;28;20224;-76
2024/02/21 05:04:18;;;;;;;13.63;7.22;;;10.80;99.90;;;;;;5074281;28;20311;-76
2024/02/21 05:06:46;;;;;;;18.45;8.55;;;10.70;99.90;;;;;;5078590;28;20259;-76
2024/02/21 05:09:14;;;;;;;13.95;9.48;;;10.70;99.90;;;;;;5079529;28;20228;-77
2024/02/21 05:11:41;;;;;;;11.40;7.07;;;10.70;99.90;;;;;;5075344;28;20215;-76
2024/02/21 05:14:08;;;;;;;17.52;8.60;;;10.80;99.90;;;;;;5073972;28;20236;-76
2024/02/21 05:16:36;;;;;;;17.60;7.80;;;10.80;99.90;;;;;;5064592;28;20678;-77
2024/02/21 05:19:04;;;;;;;13.27;8.30;;;10.80;99.90;;;;;;5074295;28;20216;-77
2024/02/21 05:21:31;;;;;;;14.73;7.60;;;10.80;99.90;;;;;;5073846;28;20624;-77
2024/02/21 05:23:59;;;;;;;16.58;7.85;;;10.80;99.90;;;;;;5064180;28;20234;-77
2024/02/21 05:26:29;;;;;;;13.07;9.45;;;10.80;99.90;;;;;;5072631;28;20228;-77
2024/02/21 05:28:56;;;;;;;12.85;7.90;;;10.80;99.90;;;;;;5073187;28;20303;-77
2024/02/21 05:31:23;;;;;;;19.92;8.90;;;10.80;99.90;;;;;;5073429;28;20330;-77
2024/02/21 05:33:52;;;;;;;21.35;8.15;;;10.70;99.90;;;;;;5073649;28;20220;-77
2024/02/21 05:36:19;;;;;;;9.00;7.05;;;10.80;99.90;;;;;;5074067;28;20598;-77
2024/02/21 05:38:48;;;;;;;13.75;7.95;;;10.70;99.90;;;;;;5063008;28;20281;-76
2024/02/21 05:41:26;;;;;;;11.50;8.07;;;10.80;99.90;;;;;;5073366;28;20665;-76
2024/02/21 05:43:53;;;;;;;16.48;7.53;;;10.80;99.90;;;;;;5063051;28;20227;-76
2024/02/21 05:46:20;;;;;;;16.63;9.00;;;10.80;99.90;;;;;;5074300;28;20318;-76
2024/02/21 05:48:47;;;;;;;17.00;8.80;;;10.80;99.90;;;;;;5075606;28;20227;-78
2024/02/21 05:51:18;;;;;;;14.75;9.45;;;10.80;99.90;;;;;;5074965;28;20607;-76
2024/02/21 05:53:47;;;;;;;15.00;7.88;;;10.80;99.90;;;;;;5073173;28;20228;-77
2024/02/21 05:56:19;;;;;;;19.92;11.43;;;10.80;99.90;;;;;;5064215;28;20250;-76
2024/02/21 05:58:46;;;;;;;18.65;11.77;;;10.80;99.90;;;;;;5072973;28;20281;-76
2024/02/21 06:01:15;;;;;;;19.05;12.30;;;10.80;99.90;;;;;;5073683;28;20697;-77
2024/02/21 06:03:42;;;;;;;16.52;10.73;;;10.90;99.90;;;;;;5072541;28;20228;-77
2024/02/21 06:06:09;;;;;;;14.73;10.50;;;10.80;99.90;;;;;;5073049;28;20255;-76
2024/02/21 06:08:42;;;;;;;30.50;19.88;;;10.80;99.90;;;;;;5073186;28;20240;-76
2024/02/21 06:11:23;;;;;;;17.48;10.40;;;10.80;99.90;;;;;;5074211;28;20220;-76
2024/02/21 06:13:57;;;;;;;19.20;13.05;;;10.80;99.90;;;;;;5075528;28;20232;-77
2024/02/21 06:16:24;;;;;;;13.45;9.70;;;10.70;99.90;;;;;;5074020;28;20230;-77
2024/02/21 06:18:53;;;;;;;18.75;9.23;;;10.70;99.90;;;;;;5073531;28;20227;-76
2024/02/21 06:21:21;;;;;;;14.50;8.80;;;10.60;99.90;;;;;;5064142;28;20228;-77
2024/02/21 06:23:49;;;;;;;16.05;8.85;;;10.60;99.90;;;;;;5074701;28;20746;-76
2024/02/21 06:26:16;;;;;;;11.30;7.95;;;10.50;99.90;;;;;;5067104;28;20220;-75
2024/02/21 06:28:43;;;;;;;13.02;8.10;;;10.50;99.90;;;;;;5072877;28;20258;-77
2024/02/21 06:31:10;;;;;;;14.13;8.18;;;10.60;99.90;;;;;;5072917;28;20686;-76
2024/02/21 06:33:44;;;;;;;11.07;9.05;;;10.60;99.90;;;;;;5073062;28;20228;-76
2024/02/21 06:36:26;;;;;;;15.13;9.27;;;10.60;99.90;;;;;;5035567;28;20587;-76
2024/02/21 06:38:55;;;;;;;12.23;9.07;;;10.60;99.90;;;;;;5072418;28;20307;-76
2024/02/21 06:41:22;;;;;;;13.05;8.40;;;10.60;99.90;;;;;;5072637;28;20266;-76
2024/02/21 06:43:49;;;;;;;15.65;11.27;;;10.70;99.90;;;;;;5072934;28;20220;-76
2024/02/21 06:46:25;;;;;;;18.77;9.95;;;10.70;99.90;;;;;;5071868;28;20220;-76
2024/02/21 06:49:00;;;;;;;12.00;9.30;;;10.60;99.90;;;;;;5072970;28;20238;-76
2024/02/21 06:51:27;;;;;;;15.95;11.32;;;10.70;99.90;;;;;;5072187;28;20630;-76
2024/02/21 06:53:57;;;;;;;27.80;17.63;;;10.80;99.90;;;;;;5072489;28;20220;-76
2024/02/21 06:56:34;;;;;;;26.92;17.05;;;10.80;99.90;;;;;;5071573;28;20228;-76
2024/02/21 06:59:01;;;;;;;19.98;11.27;;;10.90;99.90;;;;;;5072214;28;20262;-77
2024/02/21 07:01:31;;;;;;;16.13;10.77;;;11.00;99.90;;;;;;5071894;28;20220;-77
2024/02/21 07:03:58;;;;;;;15.20;8.55;;;11.00;99.90;;;;;;5064585;28;20226;-77
2024/02/21 07:06:25;;;;;;;10.40;8.43;;;11.00;99.90;;;;;;5071226;28;20223;-76
2024/02/21 07:08:59;;;;;;;19.95;11.90;;;11.10;99.90;;;;;;5072607;28;20237;-77
2024/02/21 07:11:26;;;;;;;15.25;10.10;;;11.20;99.90;;;;;;5073456;28;20681;-76
2024/02/21 07:13:52;;;;;;;16.48;11.30;;;11.20;99.90;;;;;;5076714;28;20310;-76
2024/02/21 07:16:19;;;;;;;18.70;11.88;;;11.20;99.90;;;;;;5066329;28;20285;-77
2024/02/21 07:18:48;;;;;;;16.30;9.25;;;11.30;99.90;;;;;;5076271;28;20235;-77
2024/02/21 07:21:19;;;;;;;11.38;9.60;;;11.30;99.90;;;;;;5066417;28;20246;-77
2024/02/21 07:23:48;;;;;;;16.42;9.20;;;11.40;99.90;;;;;;5076507;28;20689;-77
2024/02/21 07:26:21;;;;;;;10.63;8.32;;;11.40;99.90;;;;;;5075590;28;20263;-76
2024/02/21 07:28:51;;;;;;;26.10;21.45;;;11.40;99.90;;;;;;5076326;28;20228;-76
2024/02/21 07:31:23;;;;;;;20.15;12.02;;;11.40;99.90;;;;;;5075487;28;20257;-77
2024/02/21 07:33:50;;;;;;;15.15;8.93;;;11.40;99.90;;;;;;5076270;28;20236;-76
2024/02/21 07:36:25;;;;;;;12.75;9.50;;;11.40;99.90;;;;;;5075012;28;20216;-76
2024/02/21 07:38:52;;;;;;;18.90;10.60;;;11.30;99.90;;;;;;5076154;28;20223;-77
2024/02/21 07:41:20;;;;;;;11.30;8.38;;;11.30;99.90;;;;;;5075439;28;20220;-77
2024/02/21 07:43:50;;;;;;;20.05;11.80;;;11.40;99.90;;;;;;5076139;28;20224;-77
2024/02/21 07:46:17;;;;;;;24.58;16.67;;;11.40;99.90;;;;;;5075552;28;20311;-76
2024/02/21 07:48:46;;;;;;;24.73;14.48;;;11.40;99.90;;;;;;5074077;28;20307;-77
2024/02/21 07:51:43;;;;;;;15.60;11.30;;;11.50;99.90;;;;;;5053961;28;20231;-77
2024/02/21 07:54:10;;;;;;;14.75;9.10;;;11.50;99.90;;;;;;5064914;28;20238;-77
2024/02/21 07:56:41;;;;;;;17.38;12.30;;;11.50;99.90;;;;;;5075729;28;20228;-77
2024/02/21 07:59:13;;;;;;;14.60;8.73;;;11.60;99.90;;;;;;5064960;28;20678;-77
2024/02/21 08:01:40;;;;;;;13.13;9.52;;;11.60;99.90;;;;;;5064277;28;20724;-77
2024/02/21 08:04:07;;;;;;;21.45;13.43;;;11.50;99.90;;;;;;5066068;28;20592;-76
2024/02/21 08:06:34;;;;;;;41.00;21.88;;;11.60;99.90;;;;;;5075416;28;20255;-76
2024/02/21 08:09:03;;;;;;;10.93;8.68;;;11.60;99.90;;;;;;5076273;28;20236;-78
2024/02/21 08:11:41;;;;;;;17.25;9.05;;;11.70;99.90;;;;;;5078031;28;20232;-77
2024/02/21 08:14:08;;;;;;;17.58;10.00;;;11.70;99.90;;;;;;5080954;28;20310;-78
2024/02/21 08:16:35;;;;;;;17.63;9.93;;;11.60;99.90;;;;;;5069380;28;20285;-77
2024/02/21 08:19:06;;;;;;;14.75;8.85;;;11.60;99.90;;;;;;5077023;28;20224;-76
2024/02/21 08:21:33;;;;;;;19.63;12.15;;;11.60;99.90;;;;;;5075201;28;21004;-77
2024/02/21 08:24:02;;;;;;;16.30;9.32;;;11.70;99.90;;;;;;5077056;28;20611;-78
2024/02/21 08:26:52;;;;;;;13.98;9.45;;;11.70;99.90;;;;;;5065069;28;20238;-76
2024/02/21 08:29:20;;;;;;;25.20;18.08;;;11.80;99.90;;;;;;5074610;28;20220;-77
2024/02/21 08:31:47;;;;;;;16.83;12.02;;;11.90;99.90;;;;;;5074316;28;20758;-77
2024/02/21 08:34:23;;;;;;;14.82;9.25;;;11.90;99.90;;;;;;5074944;28;20224;-76
2024/02/21 08:36:50;;;;;;;14.52;8.63;;;12.00;99.90;;;;;;5074500;28;20702;-77
2024/02/21 08:39:19;;;;;;;23.67;15.32;;;12.00;99.90;;;;;;5074459;28;20228;-77
2024/02/21 08:41:46;;;;;;;15.63;9.15;;;12.00;99.90;;;;;;5074513;28;20324;-77
2024/02/21 08:44:13;;;;;;;17.95;13.32;;;12.00;99.90;;;;;;5074992;28;20242;-77
2024/02/21 08:46:47;;;;;;;17.88;12.60;;;12.10;99.90;;;;;;5071908;28;20224;-77
2024/02/21 08:49:28;;;;;;;18.92;12.35;;;12.10;99.90;;;;;;5075116;28;20223;-78
2024/02/21 08:51:55;;;;;;;14.57;10.90;;;12.20;99.90;;;;;;5073983;28;20289;-78
2024/02/21 08:54:22;;;;;;;19.42;11.45;;;12.20;99.90;;;;;;5074093;28;20246;-78
2024/02/21 08:56:52;;;;;;;16.95;13.20;;;12.20;99.90;;;;;;5074692;28;20224;-77
2024/02/21 08:59:20;;;;;;;13.80;9.90;;;12.20;99.90;;;;;;5074656;28;20685;-77
2024/02/21 09:01:48;;;;;;;15.05;8.85;;;12.20;99.90;;;;;;5054439;28;20569;-78
2024/02/21 09:04:15;;;;;;;14.63;10.70;;;12.30;99.90;;;;;;5073636;28;20228;-77
2024/02/21 09:06:43;;;;;;;19.65;13.75;;;12.30;99.90;;;;;;5063713;28;20228;-77
2024/02/21 09:09:11;;;;;;;11.48;8.90;;;12.30;99.90;;;;;;5073580;28;20227;-77
2024/02/21 09:14:25;;;;;;;15.20;9.43;;;12.40;99.90;;;;;;5071859;28;20273;-77
2024/02/21 09:16:55;;;;;;;13.77;10.90;;;12.40;99.90;;;;;;5074476;28;20212;-77
2024/02/21 09:19:22;;;;;;;13.65;10.68;;;12.40;99.90;;;;;;5074020;28;20285;-77
2024/02/21 09:21:52;;;;;;;18.20;13.38;;;12.40;99.90;;;;;;5073861;28;20303;-78
2024/02/21 09:24:23;;;;;;;18.33;12.25;;;12.40;99.90;;;;;;5071988;28;20235;-78
2024/02/21 09:29:54;;;;;;;11.20;8.38;;;12.40;99.90;;;;;;5070602;28;20324;-77
2024/02/21 09:32:26;;;;;;;12.65;11.30;;;12.50;99.90;;;;;;5073695;28;20239;-77
2024/02/21 09:34:54;;;;;;;15.63;10.45;;;12.50;99.90;;;;;;5073026;28;20293;-78
2024/02/21 09:37:21;;;;;;;18.85;12.52;;;12.60;99.90;;;;;;5074329;28;20232;-78
2024/02/21 09:39:52;;;;;;;13.50;10.55;;;12.60;99.90;;;;;;5073277;28;20308;-78
2024/02/21 09:42:24;;;;;;;16.98;10.38;;;12.60;99.90;;;;;;5073809;28;20292;-78
2024/02/21 09:45:00;;;;;;;13.95;10.73;;;12.60;99.90;;;;;;5063683;28;20224;-78
2024/02/21 09:47:40;;;;;;;20.25;13.40;;;12.70;99.90;;;;;;5073903;28;20598;-77
2024/02/21 09:50:13;;;;;;;22.13;18.35;;;12.70;99.90;;;;;;5073461;28;20243;-78
2024/02/21 09:52:42;;;;;;;14.73;12.20;;;12.70;99.90;;;;;;5072743;28;20231;-76
2024/02/21 09:55:13;;;;;;;15.15;10.27;;;12.80;99.90;;;;;;5073235;28;20556;-76
2024/02/21 09:57:40;;;;;;;26.83;17.10;;;12.80;99.90;;;;;;5072802;28;20220;-76
2024/02/21 10:00:09;;;;;;;11.32;10.13;;;12.90;99.90;;;;;;5072930;28;20297;-77
2024/02/21 10:02:37;;;;;;;16.85;10.20;;;12.90;99.90;;;;;;5072566;28;20737;-78
2024/02/21 10:05:21;;;;;;;17.83;13.38;;;12.90;99.90;;;;;;5073285;28;20696;-78
2024/02/21 10:07:51;;;;;;;15.43;10.55;;;12.90;99.90;;;;;;5071991;28;20315;-77
2024/02/21 10:10:22;;;;;;;17.50;12.55;;;13.00;99.90;;;;;;5073268;28;20310;-78
2024/02/21 10:12:50;;;;;;;17.05;11.13;;;13.00;99.90;;;;;;5062742;28;20220;-77
2024/02/21 10:15:22;;;;;;;15.43;12.45;;;13.00;99.90;;;;;;5073077;28;20571;-77
2024/02/21 10:17:51;;;;;;;14.68;11.60;;;13.10;99.90;;;;;;5053796;28;20236;-78
2024/02/21 10:20:18;;;;;;;13.75;10.77;;;13.10;99.90;;;;;;5072615;28;20222;-78
2024/02/21 10:22:45;;;;;;;15.23;10.57;;;13.10;99.90;;;;;;5071980;28;20335;-77
2024/02/21 10:25:13;;;;;;;15.75;10.93;;;13.10;99.90;;;;;;5072799;28;20234;-77
2024/02/21 10:27:51;;;;;;;16.02;11.45;;;13.10;99.90;;;;;;5072443;28;20224;-77
2024/02/21 10:30:18;;;;;;;16.13;11.40;;;13.20;99.90;;;;;;5073069;28;20228;-78
2024/02/21 10:33:01;;;;;;;14.90;9.90;;;13.10;99.90;;;;;;5062883;28;20972;-78
2024/02/21 10:35:29;;;;;;;14.98;10.18;;;13.10;99.90;;;;;;5071662;28;20277;-78
2024/02/21 10:37:59;;;;;;;16.93;9.30;;;13.10;99.90;;;;;;5072581;28;20705;-78
2024/02/21 10:40:30;;;;;;;10.70;8.98;;;13.10;99.90;;;;;;5072189;28;20488;-78
2024/02/21 10:42:59;;;;;;;16.17;11.68;;;13.10;99.90;;;;;;5072419;28;20285;-77
2024/02/21 10:45:41;;;;;;;14.82;10.20;;;13.10;99.90;;;;;;5072870;28;20227;-77
2024/02/21 10:48:14;;;;;;;13.93;11.15;;;13.10;99.90;;;;;;5077073;28;20254;-77
2024/02/21 10:51:00;;;;;;;14.40;9.57;;;13.20;99.90;;;;;;5077232;28;20304;-78
2024/02/21 10:53:42;;;;;;;13.60;11.18;;;13.20;99.90;;;;;;5076951;28;20466;-78
2024/02/21 10:56:20;;;;;;;17.13;11.65;;;13.20;99.90;;;;;;5076490;28;20227;-78
2024/02/21 10:58:48;;;;;;;12.63;10.50;;;13.10;99.90;;;;;;5076395;28;20224;-78
2024/02/21 11:01:17;;;;;;;16.50;11.23;;;13.10;99.90;;;;;;5077150;28;20234;-78
2024/02/21 11:03:55;;;;;;;13.38;9.45;;;13.10;99.90;;;;;;5064265;28;20470;-78
2024/02/21 11:06:26;;;;;;;11.93;9.40;;;13.20;99.90;;;;;;5076503;28;20931;-78
2024/02/21 11:09:03;;;;;;;13.48;10.45;;;13.10;99.90;;;;;;5076740;28;20307;-77
2024/02/21 11:11:31;;;;;;;12.50;9.60;;;13.10;99.90;;;;;;5076038;28;20232;-78
2024/02/21 11:14:08;;;;;;;14.23;10.32;;;13.10;99.90;;;;;;5076674;28;20228;-78
2024/02/21 11:16:39;;;;;;;12.73;11.45;;;13.10;99.90;;;;;;5072971;28;20223;-78
2024/02/21 11:19:23;;;;;;;12.40;10.57;;;13.10;99.90;;;;;;5077273;28;20696;-78
2024/02/21 11:21:51;;;;;;;9.73;8.30;;;13.10;99.90;;;;;;5076974;28;20477;-78
2024/02/21 11:24:28;;;;;;;11.50;8.85;;;13.20;99.90;;;;;;5076040;28;20470;-78
2024/02/21 11:26:56;;;;;;;10.48;8.02;;;13.20;99.90;;;;;;5076427;28;20230;-79
2024/02/21 11:29:26;;;;;;;9.50;8.50;;;13.30;99.90;;;;;;5081933;28;20266;-77
2024/02/21 11:31:53;;;;;;;11.43;8.75;;;13.30;99.90;;;;;;5068284;28;20285;-78
2024/02/21 11:34:22;;;;;;;11.68;10.30;;;13.40;99.90;;;;;;5075715;28;20301;-78
2024/02/21 11:36:50;;;;;;;11.27;9.02;;;13.50;99.90;;;;;;5066204;28;20297;-79
2024/02/21 11:39:30;;;;;;;8.97;8.00;;;13.50;99.90;;;;;;5065250;28;20563;-77
2024/02/21 11:42:07;;;;;;;15.30;8.33;;;13.50;99.90;;;;;;5075157;28;20474;-78
2024/02/21 11:44:46;;;;;;;11.43;8.00;;;13.50;99.90;;;;;;5076219;28;20891;-78
2024/02/21 11:47:17;;;;;;;8.70;7.80;;;13.60;99.90;;;;;;5059320;28;20470;-79
2024/02/21 11:49:49;;;;;;;8.50;7.70;;;13.60;99.90;;;;;;5075788;28;20488;-78
2024/02/21 11:52:18;;;;;;;9.47;7.03;;;13.60;99.90;;;;;;5075271;28;20466;-78
2024/02/21 11:54:46;;;;;;;9.10;6.90;;;13.60;99.90;;;;;;5075206;28;20478;-77
2024/02/21 11:57:16;;;;;;;7.22;6.47;;;13.60;99.90;;;;;;5070216;28;20801;-77
2024/02/21 11:59:45;;;;;;;10.73;9.03;;;13.70;99.90;;;;;;5074208;28;20250;-77
2024/02/21 12:02:14;;;;;;;11.67;8.53;;;13.70;99.90;;;;;;5075666;28;20557;-77
2024/02/21 12:04:47;;;;;;;9.90;7.47;;;13.70;99.90;;;;;;5065400;28;20509;-78
2024/02/21 12:07:15;;;;;;;11.53;8.80;;;13.80;99.90;;;;;;5074565;28;21033;-78
2024/02/21 12:09:43;;;;;;;8.40;6.20;;;13.80;99.90;;;;;;5074202;28;20492;-79
2024/02/21 12:12:10;;;;;;;7.77;6.93;;;13.90;99.90;;;;;;5066785;28;20470;-78
2024/02/21 12:14:38;;;;;;;8.03;7.20;;;13.90;99.90;;;;;;5075151;28;20476;-79
2024/02/21 12:17:07;;;;;;;7.57;6.77;;;13.90;99.90;;;;;;5075673;28;20515;-78
2024/02/21 12:19:38;;;;;;;8.87;7.70;;;13.90;99.90;;;;;;5073552;28;20807;-78
2024/02/21 12:22:08;;;;;;;10.87;7.33;;;13.90;99.90;;;;;;5075097;28;20462;-78
2024/02/21 12:24:35;;;;;;;10.50;5.60;;;13.90;99.90;;;;;;5075720;28;20470;-77
2024/02/21 12:27:03;;;;;;;7.00;6.30;;;14.00;99.90;;;;;;5074132;28;20462;-78
2024/02/21 12:29:36;;;;;;;7.10;5.57;;;14.00;99.90;;;;;;5064994;28;20538;-78
2024/02/21 12:32:09;;;;;;;8.40;7.17;;;14.10;99.90;;;;;;5074042;28;20538;-77
2024/02/21 12:34:39;;;;;;;7.03;6.33;;;14.10;99.90;;;;;;5075069;28;20558;-78
2024/02/21 12:37:08;;;;;;;10.53;6.03;;;14.20;99.90;;;;;;5065217;28;20471;-78
2024/02/21 12:39:35;;;;;;;9.10;6.33;;;14.20;99.90;;;;;;5065263;28;20540;-78
2024/02/21 12:42:07;;;;;;;8.97;6.33;;;14.20;99.90;;;;;;5074212;28;20466;-79
2024/02/21 12:44:34;;;;;;;7.83;6.70;;;14.30;99.90;;;;;;5075056;28;20473;-79
2024/02/21 12:47:01;;;;;;;10.20;9.17;;;14.30;99.90;;;;;;5073884;28;20528;-78
2024/02/21 12:49:34;;;;;;;8.27;7.10;;;14.30;99.90;;;;;;5064817;28;20475;-78
2024/02/21 12:52:01;;;;;;;7.20;6.50;;;14.30;99.90;;;;;;5073904;28;20497;-78
2024/02/21 12:54:30;;;;;;;6.10;5.27;;;14.30;99.90;;;;;;5064350;28;20466;-78